createdAt,value
2019-04-23T00:04:03.775Z,5.92
2019-04-23T00:09:15.641Z,4.40
2019-04-23T00:14:12.393Z,4.20
2019-04-23T00:19:22.924Z,5.00
2019-04-23T00:24:56.878Z,3.77
2019-04-23T00:34:56.381Z,5.92
2019-04-23T00:39:52.820Z,3.50
2019-04-23T00:44:57.351Z,2.85
2019-04-23T00:55:14.769Z,4.40
2019-04-23T01:05:27.784Z,5.33
2019-04-23T01:10:36.235Z,4.10
2019-04-23T01:15:42.725Z,5.17
2019-04-23T01:20:50.288Z,3.20
2019-04-23T01:25:50.093Z,6.80
2019-04-23T01:41:25.268Z,5.47
2019-04-23T01:46:33.889Z,5.72
2019-04-23T01:51:36.321Z,4.47
2019-04-23T01:56:33.883Z,7.22
2019-04-23T02:01:44.653Z,5.25
2019-04-23T02:06:44.912Z,5.53
2019-04-23T02:11:53.623Z,4.80
2019-04-23T02:16:57.820Z,3.58
2019-04-23T02:22:26.060Z,4.67
2019-04-23T02:27:27.829Z,4.25
2019-04-23T02:32:37.826Z,4.55
2019-04-23T02:37:54.559Z,4.62
2019-04-23T02:43:01.262Z,7.78
2019-04-23T02:47:54.969Z,8.08
2019-04-23T02:53:02.517Z,8.15
2019-04-23T02:58:01.194Z,6.50
2019-04-23T03:03:06.041Z,9.20
2019-04-23T03:08:26.837Z,5.53
2019-04-23T03:23:44.256Z,5.95
2019-04-23T03:28:59.845Z,4.97
2019-04-23T03:38:48.748Z,4.40
2019-04-23T03:54:24.433Z,9.38
2019-04-23T04:04:31.229Z,4.60
2019-04-23T04:14:38.937Z,7.37
2019-04-23T04:19:40.093Z,7.17
2019-04-23T04:45:04.823Z,8.10
2019-04-23T04:55:19.488Z,7.87
2019-04-23T05:00:23.600Z,6.53
2019-04-23T05:05:55.541Z,6.30
2019-04-23T05:10:32.463Z,6.87
2019-04-23T05:15:28.482Z,12.10
2019-04-23T05:20:37.607Z,7.53
2019-04-23T05:25:40.048Z,10.03
2019-04-23T05:46:13.006Z,10.50
2019-04-23T05:51:10.933Z,9.30
2019-04-23T05:56:15.188Z,10.68
2019-04-23T06:01:45.729Z,9.65
2019-04-23T06:06:37.869Z,10.28
2019-04-23T06:11:45.832Z,8.30
2019-04-23T06:16:41.439Z,7.60
2019-04-23T06:21:57.508Z,9.13
2019-04-23T06:26:55.086Z,7.72
2019-04-23T06:31:57.274Z,9.25
2019-04-23T06:36:59.008Z,7.20
2019-04-23T06:47:06.664Z,9.25
2019-04-23T06:52:18.718Z,9.98
2019-04-23T07:02:30.615Z,7.78
2019-04-23T07:07:42.535Z,9.73
2019-04-23T07:12:38.847Z,8.83
2019-04-23T07:17:39.621Z,6.22
2019-04-23T07:22:53.735Z,6.85
2019-04-23T07:27:51.288Z,8.03
2019-04-23T07:32:56.628Z,9.03
2019-04-23T07:38:14.615Z,8.43
2019-04-23T07:53:23.109Z,10.63
2019-04-23T07:58:29.260Z,10.43
2019-04-23T08:08:36.431Z,9.08
2019-04-23T08:18:55.697Z,8.33
2019-04-23T08:24:20.120Z,8.48
2019-04-23T08:29:14.117Z,9.18
2019-04-23T08:39:24.949Z,11.53
2019-04-23T08:44:38.648Z,9.95
2019-04-23T08:49:43.526Z,10.50
2019-04-23T09:04:53.804Z,9.73
2019-04-23T09:15:09.673Z,9.08
2019-04-23T09:20:18.777Z,9.80
2019-04-23T09:25:20.273Z,10.48
2019-04-23T09:30:23.387Z,8.95
2019-04-23T09:35:38.948Z,6.92
2019-04-23T09:41:16.686Z,9.88
2019-04-23T09:46:12.320Z,8.60
2019-04-23T09:51:18.119Z,10.35
2019-04-23T09:56:27.194Z,12.05
2019-04-23T10:06:32.723Z,9.18
2019-04-23T10:11:32.347Z,9.40
2019-04-23T10:16:36.928Z,6.92
2019-04-23T10:21:41.890Z,10.63
2019-04-23T10:26:46.185Z,12.80
2019-04-23T10:31:51.409Z,7.60
2019-04-23T10:36:55.612Z,11.22
2019-04-23T10:42:01.222Z,9.00
2019-04-23T10:47:58.958Z,10.18
2019-04-23T10:53:02.154Z,8.50
2019-04-23T10:58:04.180Z,11.97
2019-04-23T11:03:26.817Z,8.45
2019-04-23T11:08:10.723Z,10.78
2019-04-23T11:13:25.710Z,11.57
2019-04-23T11:18:24.630Z,12.55
2019-04-23T11:23:29.416Z,10.90
2019-04-23T11:28:33.238Z,9.63
2019-04-23T11:33:46.377Z,11.60
2019-04-23T11:43:46.449Z,12.35
2019-04-23T11:54:01.369Z,11.63
2019-04-23T11:59:25.737Z,9.58
2019-04-23T12:09:34.834Z,12.10
2019-04-23T12:14:42.150Z,8.95
2019-04-23T12:29:52.422Z,7.97
2019-04-23T12:55:21.695Z,7.30
2019-04-23T13:00:25.960Z,10.30
2019-04-23T13:10:43.988Z,13.72
2019-04-23T13:15:45.014Z,8.93
2019-04-23T13:31:07.903Z,8.45
2019-04-23T13:41:17.131Z,12.18
2019-04-23T13:46:17.064Z,10.63
2019-04-23T13:51:25.854Z,10.32
2019-04-23T13:56:46.584Z,8.95
2019-04-23T14:01:35.583Z,7.97
2019-04-23T14:06:46.454Z,15.50
2019-04-23T14:11:40.449Z,12.73
2019-04-23T14:17:17.492Z,10.78
2019-04-23T14:22:09.737Z,12.53
2019-04-23T14:27:08.835Z,12.60
2019-04-23T14:32:15.985Z,12.65
2019-04-23T14:37:16.870Z,11.85
2019-04-23T14:42:26.416Z,15.15
2019-04-23T14:47:27.809Z,8.88
2019-04-23T14:57:45.263Z,10.10
2019-04-23T15:02:44.794Z,11.30
2019-04-23T15:07:50.822Z,12.93
2019-04-23T15:12:54.340Z,10.68
2019-04-23T15:18:13.167Z,10.08
2019-04-23T15:23:29.929Z,10.88
2019-04-23T15:28:06.583Z,13.53
2019-04-23T15:33:30.082Z,10.00
2019-04-23T15:38:40.050Z,10.10
2019-04-23T15:43:22.521Z,8.40
2019-04-23T15:48:31.312Z,9.55
2019-04-23T15:53:31.073Z,9.68
2019-04-23T15:59:00.176Z,11.00
2019-04-23T16:03:20.620Z,12.13
2019-04-23T16:09:05.407Z,9.10
2019-04-23T16:14:15.797Z,8.33
2019-04-23T16:19:15.223Z,11.55
2019-04-23T16:34:33.245Z,11.95
2019-04-23T16:39:44.053Z,10.45
2019-04-23T16:44:59.666Z,9.98
2019-04-23T16:49:58.894Z,10.88
2019-04-23T16:55:04.647Z,9.35
2019-04-23T17:00:15.269Z,15.65
2019-04-23T17:05:14.580Z,9.65
2019-04-23T17:10:23.358Z,11.83
2019-04-23T17:15:25.991Z,13.05
2019-04-23T17:20:31.211Z,9.18
2019-04-23T17:25:48.816Z,12.10
2019-04-23T17:30:41.336Z,11.73
2019-04-23T17:36:05.460Z,10.95
2019-04-23T17:41:05.896Z,13.95
2019-04-23T17:46:12.026Z,11.75
2019-04-23T17:51:10.968Z,12.63
2019-04-23T18:01:31.072Z,13.48
2019-04-23T18:06:37.972Z,13.72
2019-04-23T18:11:39.038Z,13.83
2019-04-23T18:16:57.565Z,14.35
2019-04-23T18:21:55.278Z,11.12
2019-04-23T18:27:01.209Z,15.90
2019-04-23T18:32:09.465Z,13.20
2019-04-23T18:37:11.727Z,12.18
2019-04-23T18:42:19.907Z,16.97
2019-04-23T18:47:26.043Z,13.90
2019-04-23T18:57:33.910Z,17.30
2019-04-23T19:02:52.349Z,16.02
2019-04-23T19:08:01.423Z,21.10
2019-04-23T19:13:06.727Z,13.80
2019-04-23T19:18:04.009Z,12.63
2019-04-23T19:23:32.131Z,22.52
2019-04-23T19:28:36.926Z,12.47
2019-04-23T19:33:32.876Z,17.02
2019-04-23T19:48:57.508Z,14.38
2019-04-23T19:58:55.145Z,16.40
2019-04-23T20:03:54.208Z,13.70
2019-04-23T20:09:17.597Z,14.50
2019-04-23T20:14:02.354Z,13.90
2019-04-23T20:19:21.212Z,16.17
2019-04-23T20:24:52.667Z,16.12
2019-04-23T20:39:49.173Z,14.53
2019-04-23T20:49:48.844Z,17.07
2019-04-23T20:55:02.131Z,13.75
2019-04-23T21:36:18.516Z,16.17
2019-04-23T21:41:50.975Z,13.25
2019-04-23T21:46:51.012Z,13.70
2019-04-23T21:51:57.451Z,12.60
2019-04-23T21:56:53.953Z,9.05
2019-04-23T22:02:03.488Z,16.85
2019-04-23T22:07:10.078Z,14.35
2019-04-23T22:12:15.430Z,15.23
2019-04-23T22:17:28.269Z,15.43
2019-04-23T22:22:28.629Z,19.48
2019-04-23T22:27:27.629Z,12.23
2019-04-23T22:32:55.517Z,19.52
2019-04-23T22:37:45.825Z,13.35
2019-04-23T22:47:56.101Z,17.65
2019-04-23T22:53:00.643Z,13.83
2019-04-23T23:03:22.624Z,22.75
2019-04-23T23:08:48.179Z,13.58
2019-04-23T23:13:28.487Z,15.95
2019-04-23T23:18:52.442Z,13.40
2019-04-23T23:23:40.380Z,17.48
2019-04-23T23:28:42.600Z,16.37
2019-04-23T23:33:47.451Z,15.83
2019-04-23T23:38:58.454Z,18.57
2019-04-23T23:44:20.772Z,14.00
2019-04-23T23:49:03.219Z,16.20
2019-04-23T23:54:10.374Z,14.98
2019-04-23T23:59:18.006Z,14.85
